createdAt,value
2024-05-09T00:00:49.636Z,13.48
2024-05-09T00:03:20.132Z,12.40
2024-05-09T00:05:47.594Z,10.95
2024-05-09T00:08:18.058Z,9.13
2024-05-09T00:10:47.843Z,12.35
2024-05-09T00:13:18.027Z,10.95
2024-05-09T00:15:45.743Z,11.07
2024-05-09T00:18:13.477Z,9.82
2024-05-09T00:20:44.059Z,10.80
2024-05-09T00:23:14.416Z,10.25
2024-05-09T00:25:44.879Z,11.82
2024-05-09T00:28:13.549Z,13.48
2024-05-09T00:30:42.840Z,10.15
2024-05-09T00:33:11.443Z,10.50
2024-05-09T00:35:39.985Z,12.40
2024-05-09T00:38:07.925Z,9.60
2024-05-09T00:40:40.779Z,10.50
2024-05-09T00:43:14.789Z,10.63
2024-05-09T00:45:43.647Z,13.30
2024-05-09T00:48:19.647Z,11.35
2024-05-09T00:50:49.565Z,10.80
2024-05-09T00:53:19.054Z,13.05
2024-05-09T00:55:50.415Z,12.30
2024-05-09T00:58:20.756Z,11.93
2024-05-09T01:00:51.954Z,12.02
2024-05-09T01:03:22.384Z,12.68
2024-05-09T01:05:50.899Z,18.10
2024-05-09T01:08:19.213Z,11.88
2024-05-09T01:10:48.618Z,13.38
2024-05-09T01:13:16.868Z,11.75
2024-05-09T01:15:44.221Z,10.98
2024-05-09T01:18:13.479Z,16.63
2024-05-09T01:20:44.102Z,13.43
2024-05-09T01:23:14.773Z,12.70
2024-05-09T01:25:47.454Z,13.57
2024-05-09T01:28:16.677Z,13.60
2024-05-09T01:30:44.183Z,14.50
2024-05-09T01:33:12.613Z,12.27
2024-05-09T01:35:42.312Z,14.80
2024-05-09T01:38:11.180Z,11.23
2024-05-09T01:40:40.144Z,11.55
2024-05-09T01:43:09.220Z,13.65
2024-05-09T01:45:37.486Z,11.68
2024-05-09T01:48:05.457Z,12.93
2024-05-09T01:50:38.951Z,13.32
2024-05-09T01:53:14.397Z,14.18
2024-05-09T01:55:47.273Z,14.25
2024-05-09T01:58:14.994Z,11.90
2024-05-09T02:00:43.657Z,13.38
2024-05-09T02:03:15.452Z,14.52
2024-05-09T02:05:48.659Z,14.68
2024-05-09T02:08:22.656Z,18.13
2024-05-09T02:10:51.022Z,14.05
2024-05-09T02:13:18.649Z,15.25
2024-05-09T02:15:46.257Z,16.23
2024-05-09T02:18:14.036Z,15.60
2024-05-09T02:20:42.891Z,18.02
2024-05-09T02:23:11.032Z,16.33
2024-05-09T02:25:38.849Z,17.50
2024-05-09T02:28:06.691Z,14.30
2024-05-09T02:30:40.116Z,23.13
2024-05-09T02:33:12.262Z,18.27
2024-05-09T02:35:41.935Z,20.08
2024-05-09T02:38:10.176Z,16.95
2024-05-09T02:40:39.357Z,18.27
2024-05-09T02:43:10.270Z,16.73
2024-05-09T02:45:39.812Z,19.60
2024-05-09T02:48:10.527Z,18.13
2024-05-09T02:50:39.840Z,21.00
2024-05-09T02:53:13.005Z,16.67
2024-05-09T02:55:41.291Z,16.23
2024-05-09T02:58:09.017Z,15.73
2024-05-09T03:00:40.526Z,24.95
2024-05-09T03:03:12.855Z,15.30
2024-05-09T03:05:43.171Z,17.83
2024-05-09T03:08:10.851Z,18.42
2024-05-09T03:10:40.753Z,16.35
2024-05-09T03:13:14.967Z,19.98
2024-05-09T03:15:43.398Z,15.45
2024-05-09T03:18:11.648Z,16.75
2024-05-09T03:20:42.569Z,14.13
2024-05-09T03:23:12.937Z,15.48
2024-05-09T03:25:40.311Z,18.30
2024-05-09T03:28:07.865Z,13.98
2024-05-09T03:30:40.473Z,13.88
2024-05-09T03:33:15.115Z,13.50
2024-05-09T03:35:45.997Z,15.30
2024-05-09T03:38:16.505Z,12.43
2024-05-09T03:40:48.207Z,13.95
2024-05-09T03:43:16.291Z,12.55
2024-05-09T03:45:44.334Z,11.57
2024-05-09T03:48:11.843Z,22.23
2024-05-09T03:50:39.652Z,13.15
2024-05-09T03:53:11.195Z,15.90
2024-05-09T03:55:38.605Z,14.80
2024-05-09T03:58:06.225Z,13.40
2024-05-09T04:00:38.130Z,16.15
2024-05-09T04:03:10.151Z,13.57
2024-05-09T04:05:43.570Z,14.88
2024-05-09T04:08:11.755Z,16.42
2024-05-09T04:10:40.806Z,14.52
2024-05-09T04:13:08.260Z,11.80
2024-05-09T04:15:35.515Z,14.27
2024-05-09T04:18:03.118Z,15.38
2024-05-09T04:20:37.805Z,13.00
2024-05-09T04:23:09.052Z,16.48
2024-05-09T04:25:36.994Z,13.18
2024-05-09T04:28:04.701Z,14.68
2024-05-09T04:30:38.021Z,13.32
2024-05-09T04:33:10.490Z,14.40
2024-05-09T04:38:07.136Z,17.92
2024-05-09T04:40:36.792Z,20.17
2024-05-09T04:43:06.628Z,16.20
2024-05-09T04:45:34.467Z,15.07
2024-05-09T04:48:04.827Z,15.35
2024-05-09T04:50:37.163Z,13.10
2024-05-09T04:53:08.779Z,13.55
2024-05-09T04:55:38.126Z,14.15
2024-05-09T04:58:08.828Z,16.75
2024-05-09T05:00:38.072Z,17.48
2024-05-09T05:03:13.710Z,20.05
2024-05-09T05:05:44.561Z,12.45
2024-05-09T05:08:14.340Z,19.80
2024-05-09T05:10:42.669Z,13.48
2024-05-09T05:13:13.229Z,20.45
2024-05-09T05:15:40.524Z,14.27
2024-05-09T05:18:07.964Z,13.50
2024-05-09T05:20:35.373Z,13.80
2024-05-09T05:23:02.721Z,18.00
2024-05-09T05:25:30.014Z,17.02
2024-05-09T05:27:57.358Z,14.52
2024-05-09T05:30:32.560Z,17.67
2024-05-09T05:33:01.797Z,17.23
2024-05-09T05:35:32.387Z,17.08
2024-05-09T05:37:59.811Z,13.45
2024-05-09T05:40:35.654Z,16.48
2024-05-09T05:43:05.788Z,17.10
2024-05-09T05:45:32.960Z,16.75
2024-05-09T05:48:00.513Z,16.67
2024-05-09T05:50:35.339Z,14.65
2024-05-09T05:53:06.806Z,17.48
2024-05-09T05:55:34.539Z,13.27
2024-05-09T05:58:02.391Z,12.88
2024-05-09T06:00:37.349Z,15.18
2024-05-09T06:03:06.951Z,12.65
2024-05-09T06:08:28.012Z,13.18
2024-05-09T06:10:57.336Z,12.23
2024-05-09T06:13:24.880Z,13.35
2024-05-09T06:15:52.123Z,13.60
2024-05-09T06:18:19.679Z,14.00
2024-05-09T06:20:47.501Z,11.02
2024-05-09T06:23:15.572Z,14.35
2024-05-09T06:25:43.103Z,12.57
2024-05-09T06:28:10.617Z,16.13
2024-05-09T06:30:40.672Z,13.20
2024-05-09T06:33:12.526Z,15.18
2024-05-09T06:35:41.967Z,14.38
2024-05-09T06:38:09.886Z,11.73
2024-05-09T06:40:43.681Z,10.85
2024-05-09T06:43:17.598Z,17.42
2024-05-09T06:45:52.151Z,14.02
2024-05-09T06:48:20.436Z,19.65
2024-05-09T06:50:48.230Z,13.52
2024-05-09T06:53:16.568Z,11.30
2024-05-09T06:55:43.959Z,15.52
2024-05-09T06:58:11.162Z,15.25
2024-05-09T07:00:40.878Z,15.60
2024-05-09T07:03:19.282Z,14.48
2024-05-09T07:05:49.118Z,14.35
2024-05-09T07:08:17.915Z,13.63
2024-05-09T07:10:45.368Z,14.27
2024-05-09T07:13:13.781Z,17.45
2024-05-09T07:15:44.298Z,11.35
2024-05-09T07:18:19.017Z,22.65
2024-05-09T07:20:48.038Z,10.88
2024-05-09T07:23:16.343Z,18.27
2024-05-09T07:25:52.467Z,12.45
2024-05-09T07:28:29.584Z,15.27
2024-05-09T07:30:59.856Z,12.27
2024-05-09T07:33:29.777Z,13.13
2024-05-09T07:36:00.558Z,13.90
2024-05-09T07:38:31.077Z,14.18
2024-05-09T07:40:58.657Z,16.27
2024-05-09T07:43:28.535Z,11.55
2024-05-09T07:46:23.410Z,11.48
2024-05-09T07:53:57.129Z,14.32
2024-05-09T07:56:29.254Z,12.60
2024-05-09T07:58:56.777Z,18.38
2024-05-09T08:01:27.032Z,11.65
2024-05-09T08:03:55.269Z,15.75
2024-05-09T08:06:29.006Z,14.60
2024-05-09T08:08:57.795Z,9.85
2024-05-09T08:11:26.267Z,13.63
2024-05-09T08:13:53.513Z,8.95
2024-05-09T08:16:20.712Z,10.10
2024-05-09T08:18:48.030Z,13.52
2024-05-09T08:21:15.271Z,12.00
2024-05-09T08:23:42.527Z,9.88
2024-05-09T08:26:09.853Z,12.85
2024-05-09T08:28:37.245Z,10.10
2024-05-09T08:31:06.855Z,12.00
2024-05-09T08:33:35.031Z,8.82
2024-05-09T08:36:02.416Z,9.18
2024-05-09T08:38:30.316Z,12.50
2024-05-09T08:41:02.582Z,7.88
2024-05-09T08:43:33.102Z,11.25
2024-05-09T08:46:06.656Z,8.60
2024-05-09T08:48:41.023Z,7.97
2024-05-09T08:51:08.410Z,9.38
2024-05-09T08:53:35.739Z,11.10
2024-05-09T08:56:03.704Z,8.45
2024-05-09T08:58:31.658Z,8.10
2024-05-09T09:00:59.762Z,12.70
2024-05-09T09:03:33.378Z,13.02
2024-05-09T09:06:06.385Z,12.90
2024-05-09T09:08:33.765Z,9.45
2024-05-09T09:11:01.202Z,12.48
2024-05-09T09:13:28.403Z,11.50
2024-05-09T09:15:55.646Z,10.13
2024-05-09T09:18:24.844Z,12.52
2024-05-09T09:20:53.119Z,10.52
2024-05-09T09:23:20.590Z,11.30
2024-05-09T09:25:51.707Z,12.70
2024-05-09T09:28:19.344Z,7.43
2024-05-09T09:30:46.746Z,13.38
2024-05-09T09:33:14.312Z,10.25
2024-05-09T09:35:41.602Z,12.32
2024-05-09T09:38:11.833Z,9.07
2024-05-09T09:40:49.918Z,11.25
2024-05-09T09:43:22.630Z,11.18
2024-05-09T09:45:51.956Z,7.85
2024-05-09T09:48:23.743Z,27.33
2024-05-09T09:51:05.468Z,11.07
2024-05-09T09:53:41.380Z,10.60
2024-05-09T09:56:16.401Z,5.70
2024-05-09T09:58:44.624Z,12.30
2024-05-09T10:01:12.121Z,7.30
2024-05-09T10:03:42.494Z,7.95
2024-05-09T10:06:16.363Z,6.90
2024-05-09T10:08:43.788Z,9.60
2024-05-09T10:11:11.077Z,9.10
2024-05-09T10:13:42.410Z,5.90
2024-05-09T10:16:11.507Z,11.05
2024-05-09T10:18:41.247Z,12.32
2024-05-09T10:21:24.412Z,7.47
2024-05-09T10:24:11.953Z,9.27
2024-05-09T10:26:39.686Z,5.28
2024-05-09T10:29:18.700Z,5.78
2024-05-09T10:31:47.919Z,6.50
2024-05-09T10:34:19.295Z,7.25
2024-05-09T10:36:46.736Z,7.50
2024-05-09T10:39:14.601Z,7.45
2024-05-09T10:41:41.747Z,7.78
2024-05-09T10:44:16.181Z,6.72
2024-05-09T10:46:43.743Z,10.52
2024-05-09T10:49:11.569Z,8.15
2024-05-09T10:51:39.960Z,9.25
2024-05-09T10:54:07.230Z,6.70
2024-05-09T10:56:34.463Z,6.10
2024-05-09T10:59:04.309Z,13.00
2024-05-09T11:01:31.927Z,8.35
2024-05-09T11:03:59.347Z,4.82
2024-05-09T11:06:26.943Z,6.75
2024-05-09T11:09:07.362Z,7.63
2024-05-09T11:11:34.706Z,6.50
2024-05-09T11:14:13.820Z,9.27
2024-05-09T11:16:59.346Z,9.70
2024-05-09T11:19:46.943Z,6.88
2024-05-09T11:22:17.979Z,8.23
2024-05-09T11:24:46.134Z,8.32
2024-05-09T11:27:13.443Z,9.95
2024-05-09T11:29:42.135Z,7.13
2024-05-09T11:32:10.933Z,5.80
2024-05-09T11:34:39.047Z,5.93
2024-05-09T11:37:06.486Z,6.57
2024-05-09T11:39:33.913Z,5.40
2024-05-09T11:42:03.753Z,5.88
2024-05-09T11:44:32.129Z,5.85
2024-05-09T11:46:59.616Z,4.65
2024-05-09T11:49:35.350Z,7.80
2024-05-09T11:52:02.727Z,7.60
2024-05-09T11:54:31.358Z,7.45
2024-05-09T11:56:58.554Z,8.30
2024-05-09T11:59:25.746Z,8.90
2024-05-09T12:01:53.033Z,5.10
2024-05-09T12:04:23.763Z,8.35
2024-05-09T12:06:51.256Z,7.03
2024-05-09T12:09:20.351Z,5.20
2024-05-09T12:11:51.945Z,3.50
2024-05-09T12:14:19.341Z,7.22
2024-05-09T12:16:47.865Z,5.93
2024-05-09T12:19:19.478Z,5.93
2024-05-09T12:21:47.425Z,5.15
2024-05-09T12:24:18.281Z,7.53
2024-05-09T12:26:46.050Z,6.60
2024-05-09T12:29:19.475Z,5.55
2024-05-09T12:31:48.142Z,4.57
2024-05-09T12:34:21.210Z,3.15
2024-05-09T12:36:48.556Z,4.88
2024-05-09T12:39:15.813Z,6.40
2024-05-09T12:41:43.275Z,4.50
2024-05-09T12:44:10.439Z,8.80
2024-05-09T12:46:39.535Z,3.80
2024-05-09T12:49:09.907Z,5.88
2024-05-09T12:51:40.565Z,8.00
2024-05-09T12:54:08.698Z,5.03
2024-05-09T12:56:37.441Z,7.78
2024-05-09T12:59:06.368Z,5.20
2024-05-09T13:01:34.718Z,4.80
2024-05-09T13:04:03.076Z,4.05
2024-05-09T13:06:30.386Z,5.43
2024-05-09T13:08:58.301Z,4.50
2024-05-09T13:11:28.226Z,4.90
2024-05-09T13:13:58.344Z,3.10
2024-05-09T13:16:29.183Z,3.53
2024-05-09T13:19:00.764Z,4.40
2024-05-09T13:21:31.019Z,5.03
2024-05-09T13:24:04.255Z,7.53
2024-05-09T13:26:37.736Z,7.60
2024-05-09T13:29:04.969Z,3.00
2024-05-09T13:31:37.910Z,6.35
2024-05-09T13:34:11.224Z,4.80
2024-05-09T13:36:41.689Z,4.63
2024-05-09T13:39:11.492Z,3.17
2024-05-09T13:41:39.610Z,5.18
2024-05-09T13:44:11.734Z,4.80
2024-05-09T13:46:49.194Z,6.60
2024-05-09T13:49:16.519Z,5.93
2024-05-09T13:51:49.778Z,3.35
2024-05-09T13:54:20.169Z,3.55
2024-05-09T13:56:50.276Z,5.15
2024-05-09T13:59:21.735Z,2.70
2024-05-09T14:01:52.453Z,4.28
2024-05-09T14:04:20.264Z,5.60
2024-05-09T14:06:50.100Z,5.18
2024-05-09T14:09:18.959Z,3.13
2024-05-09T14:11:46.367Z,3.22
2024-05-09T14:14:14.954Z,2.95
2024-05-09T14:16:43.637Z,6.28
2024-05-09T14:19:12.366Z,2.97
2024-05-09T14:21:42.280Z,3.15
2024-05-09T14:24:10.590Z,2.78
2024-05-09T14:26:41.381Z,5.38
2024-05-09T14:29:11.844Z,2.87
2024-05-09T14:31:41.839Z,7.07
2024-05-09T14:34:15.518Z,4.07
2024-05-09T14:36:43.022Z,3.08
2024-05-09T14:39:19.904Z,2.65
2024-05-09T14:41:48.732Z,4.57
2024-05-09T14:44:17.409Z,3.53
2024-05-09T14:46:45.216Z,6.63
2024-05-09T14:49:14.473Z,4.43
2024-05-09T14:51:51.470Z,3.75
2024-05-09T14:54:20.560Z,4.70
2024-05-09T14:56:51.840Z,3.53
2024-05-09T14:59:22.186Z,7.50
2024-05-09T15:01:57.302Z,6.53
2024-05-09T15:04:34.669Z,3.42
2024-05-09T15:07:02.077Z,4.72
2024-05-09T15:09:36.146Z,3.05
2024-05-09T15:12:03.943Z,3.88
2024-05-09T15:17:12.148Z,3.08
2024-05-09T15:19:42.388Z,3.47
2024-05-09T15:22:15.553Z,4.80
2024-05-09T15:24:52.908Z,3.85
2024-05-09T15:27:21.555Z,5.57
2024-05-09T15:29:48.769Z,4.00
2024-05-09T15:32:16.095Z,3.42
2024-05-09T15:34:43.442Z,3.15
2024-05-09T15:37:10.809Z,2.13
2024-05-09T15:39:41.096Z,2.50
2024-05-09T15:42:09.532Z,5.32
2024-05-09T15:44:36.860Z,3.08
2024-05-09T15:47:04.838Z,10.40
2024-05-09T15:49:32.709Z,2.92
2024-05-09T15:52:02.370Z,2.42
2024-05-09T15:54:31.523Z,3.60
2024-05-09T15:57:02.777Z,7.85
2024-05-09T15:59:30.395Z,2.45
2024-05-09T16:01:59.020Z,3.95
2024-05-09T16:04:27.748Z,4.13
2024-05-09T16:06:55.468Z,5.68
2024-05-09T16:09:23.200Z,3.88
2024-05-09T16:11:50.535Z,3.22
2024-05-09T16:14:17.890Z,2.65
2024-05-09T16:16:45.254Z,5.28
2024-05-09T16:19:13.425Z,3.03
2024-05-09T16:21:41.931Z,4.78
2024-05-09T16:24:18.900Z,5.40
2024-05-09T16:26:47.478Z,5.18
2024-05-09T16:29:16.306Z,2.65
2024-05-09T16:31:46.286Z,3.70
2024-05-09T16:34:16.478Z,5.72
2024-05-09T16:36:44.258Z,2.78
2024-05-09T16:39:13.573Z,3.85
2024-05-09T16:41:40.854Z,2.63
2024-05-09T16:44:11.186Z,2.67
2024-05-09T16:46:41.675Z,3.53
2024-05-09T16:49:11.250Z,4.03
2024-05-09T16:51:40.248Z,2.45
2024-05-09T16:54:07.466Z,4.28
2024-05-09T16:56:37.621Z,3.72
2024-05-09T16:59:06.034Z,3.25
2024-05-09T17:01:33.354Z,5.50
2024-05-09T17:04:01.275Z,2.65
2024-05-09T17:06:29.055Z,4.28
2024-05-09T17:09:08.129Z,4.60
2024-05-09T17:11:38.887Z,3.22
2024-05-09T17:14:06.163Z,2.85
2024-05-09T17:16:34.221Z,3.22
2024-05-09T17:19:04.426Z,2.45
2024-05-09T17:21:31.721Z,2.80
2024-05-09T17:23:58.999Z,4.80
2024-05-09T17:26:26.989Z,5.85
2024-05-09T17:28:55.111Z,5.00
2024-05-09T17:31:23.726Z,2.95
2024-05-09T17:33:51.858Z,4.63
2024-05-09T17:36:19.454Z,4.72
2024-05-09T17:38:46.812Z,4.82
2024-05-09T17:41:14.022Z,3.30
2024-05-09T17:43:42.905Z,2.88
2024-05-09T17:46:10.723Z,4.13
2024-05-09T17:48:38.347Z,3.10
2024-05-09T17:51:08.812Z,4.35
2024-05-09T17:53:36.641Z,4.38
2024-05-09T17:56:03.967Z,3.78
2024-05-09T17:58:34.709Z,5.13
2024-05-09T18:01:02.339Z,5.25
2024-05-09T18:03:30.095Z,6.00
2024-05-09T18:05:59.056Z,3.03
2024-05-09T18:08:26.393Z,3.28
2024-05-09T18:10:55.348Z,3.95
2024-05-09T18:13:23.510Z,6.55
2024-05-09T18:15:51.593Z,13.60
2024-05-09T18:18:19.330Z,5.03
2024-05-09T18:20:47.068Z,3.90
2024-05-09T18:23:17.019Z,4.65
2024-05-09T18:25:45.782Z,3.67
2024-05-09T18:28:14.683Z,6.00
2024-05-09T18:30:43.133Z,4.05
2024-05-09T18:33:12.250Z,4.55
2024-05-09T18:35:41.869Z,4.43
2024-05-09T18:38:09.903Z,9.38
2024-05-09T18:40:42.823Z,4.57
2024-05-09T18:43:12.252Z,6.05
2024-05-09T18:45:40.237Z,6.50
2024-05-09T18:48:14.021Z,4.05
2024-05-09T18:50:41.886Z,7.68
2024-05-09T18:53:16.662Z,4.55
2024-05-09T18:55:47.894Z,7.78
2024-05-09T18:58:15.936Z,5.63
2024-05-09T19:00:49.134Z,10.38
2024-05-09T19:03:18.211Z,7.15
2024-05-09T19:05:47.518Z,9.98
2024-05-09T19:08:17.118Z,4.38
2024-05-09T19:10:47.238Z,6.90
2024-05-09T19:13:16.287Z,8.07
2024-05-09T19:15:44.640Z,7.55
2024-05-09T19:18:15.413Z,6.68
2024-05-09T19:20:44.773Z,4.22
2024-05-09T19:23:12.854Z,7.82
2024-05-09T19:25:40.774Z,8.05
2024-05-09T19:28:08.151Z,6.18
2024-05-09T19:30:41.116Z,6.38
2024-05-09T19:33:14.019Z,12.38
2024-05-09T19:35:44.198Z,8.30
2024-05-09T19:38:12.889Z,6.45
2024-05-09T19:40:40.777Z,7.70
2024-05-09T19:43:09.093Z,5.38
2024-05-09T19:45:36.875Z,5.03
2024-05-09T19:48:06.930Z,9.23
2024-05-09T19:50:41.158Z,6.78
2024-05-09T19:53:14.501Z,4.57
2024-05-09T19:55:44.179Z,5.53
2024-05-09T19:58:12.839Z,7.63
2024-05-09T20:00:43.181Z,7.13
2024-05-09T20:03:13.795Z,8.27
2024-05-09T20:05:43.248Z,6.32
2024-05-09T20:08:10.942Z,6.68
2024-05-09T20:10:39.384Z,9.10
2024-05-09T20:13:09.424Z,9.50
2024-05-09T20:15:37.829Z,6.03
2024-05-09T20:18:07.263Z,7.85
2024-05-09T20:20:39.689Z,7.80
2024-05-09T20:23:12.895Z,8.18
2024-05-09T20:25:40.943Z,12.05
2024-05-09T20:28:08.395Z,6.55
2024-05-09T20:30:36.353Z,7.25
2024-05-09T20:33:09.490Z,11.98
2024-05-09T20:35:38.416Z,6.05
2024-05-09T20:38:09.361Z,5.05
2024-05-09T20:40:39.614Z,7.10
2024-05-09T20:43:11.106Z,6.30
2024-05-09T20:45:39.618Z,8.77
2024-05-09T20:48:08.840Z,14.38
2024-05-09T20:50:42.332Z,11.15
2024-05-09T20:53:14.931Z,8.90
2024-05-09T20:55:46.253Z,8.50
2024-05-09T20:58:16.975Z,9.38
2024-05-09T21:00:45.973Z,13.43
2024-05-09T21:03:17.500Z,8.68
2024-05-09T21:05:46.363Z,7.47
2024-05-09T21:08:14.497Z,11.38
2024-05-09T21:10:42.284Z,6.40
2024-05-09T21:13:10.028Z,10.77
2024-05-09T21:15:37.495Z,9.70
2024-05-09T21:18:08.155Z,10.65
2024-05-09T21:20:35.571Z,11.77
2024-05-09T21:23:03.839Z,7.22
2024-05-09T21:25:36.469Z,6.50
2024-05-09T21:28:04.322Z,9.00
2024-05-09T21:30:40.395Z,10.70
2024-05-09T21:33:11.860Z,6.15
2024-05-09T21:35:41.940Z,10.95
2024-05-09T21:38:09.755Z,7.53
2024-05-09T21:40:37.989Z,9.48
2024-05-09T21:43:08.313Z,7.07
2024-05-09T21:45:38.531Z,8.52
2024-05-09T21:48:08.330Z,7.18
2024-05-09T21:50:40.118Z,11.93
2024-05-09T21:53:10.235Z,13.07
2024-05-09T21:55:37.645Z,10.40
2024-05-09T21:58:05.193Z,11.10
2024-05-09T22:00:37.377Z,10.13
2024-05-09T22:03:11.328Z,7.72
2024-05-09T22:05:39.958Z,9.27
2024-05-09T22:08:09.259Z,13.93
2024-05-09T22:10:39.663Z,13.55
2024-05-09T22:13:08.403Z,8.60
2024-05-09T22:15:41.499Z,8.30
2024-05-09T22:18:10.819Z,9.40
2024-05-09T22:20:39.874Z,13.52
2024-05-09T22:23:09.082Z,10.75
2024-05-09T22:25:37.254Z,7.50
2024-05-09T22:28:07.946Z,9.63
2024-05-09T22:30:41.190Z,10.27
2024-05-09T22:33:10.411Z,6.95
2024-05-09T22:35:40.273Z,7.10
2024-05-09T22:38:07.940Z,6.15
2024-05-09T22:43:10.435Z,6.80
2024-05-09T22:45:38.662Z,7.00
2024-05-09T22:48:09.713Z,5.15
2024-05-09T22:50:37.140Z,7.05
2024-05-09T22:53:04.476Z,7.28
2024-05-09T22:55:31.683Z,10.90
2024-05-09T22:57:59.907Z,5.78
2024-05-09T23:00:31.768Z,7.63
2024-05-09T23:03:05.769Z,9.93
2024-05-09T23:08:05.634Z,9.35
2024-05-09T23:10:36.653Z,11.52
2024-05-09T23:13:08.381Z,8.15
2024-05-09T23:15:38.805Z,6.43
2024-05-09T23:18:10.951Z,6.88
2024-05-09T23:23:12.035Z,7.50
2024-05-09T23:25:40.982Z,9.02
2024-05-09T23:28:08.893Z,10.32
2024-05-09T23:30:42.589Z,7.35
2024-05-09T23:33:13.636Z,6.38
2024-05-09T23:35:42.162Z,8.48
2024-05-09T23:38:09.851Z,7.00
2024-05-09T23:40:43.068Z,6.68
2024-05-09T23:43:15.419Z,7.78
2024-05-09T23:48:11.424Z,5.93
2024-05-09T23:50:40.371Z,5.70
2024-05-09T23:53:14.298Z,6.88
2024-05-09T23:55:41.763Z,5.35
2024-05-09T23:58:11.992Z,6.65
